• Join FlightAware (Why Join?)
  • Login
  • US Flag 
04:51PM EDT


 

Airport Tracker/Info


-or-


 

Live Flight TrackerFlight Track Log ✈ N5436U ✈ 28-Jul-2013 ✈ KHXD - KLZU

Flight Track Log - Related Links

Times and Time Zones

All times are in EDT time to prevent confusion due to time zone crossing. See the N5436U flight status page for this flight to view local times or setup timezone preferences in your user account.

Time Position Orientation Groundspeed Altitude Reporting Facility
EDT Latitude Longitude Course Direction KTS MPH feet Rate Location/Type
02:56PM 32.3488 -80.9476 301° West  Level FlightAware Approximate
02:57PM 32.3814 -80.9814 320° Northwest  Level FlightAware Approximate
02:58PM 32.4045 -81.0247 304° West  Level FlightAware Approximate
02:59PM 32.4286 -81.0674 304° West  Level FlightAware Approximate
03:00PM 32.4526 -81.1102 304° West  Level FlightAware Approximate
03:00PM 32.4686 -81.0631 304° West 131 151 6,600  Level Jacksonville Center
03:01PM 32.4766 -81.1530 304° West  Level FlightAware Approximate
03:01PM 32.4900 -81.0994 305° West 131 151 7,000  Level Jacksonville Center
03:02PM 32.5006 -81.1958 304° West  Level FlightAware Approximate
03:02PM 32.5092 -81.1311 306° West 140 161 7,400  Level Jacksonville Center
03:03PM 32.5246 -81.2386 304° West  Level FlightAware Approximate
03:03PM 32.5306 -81.1653 307° West 129 148 7,900  Level Jacksonville Center
03:04PM 32.5486 -81.2815 304° West  Level FlightAware Approximate
03:04PM 32.5519 -81.1969 309° West 129 148 8,100  Level Jacksonville Center
03:05PM 32.5726 -81.3244 304° West  Level FlightAware Approximate
03:05PM 32.5797 -81.2433 305° West 146 168 8,100  Level Jacksonville Center
03:06PM 32.5965 -81.3673 304° West  Level FlightAware Approximate
03:06PM 32.6053 -81.2847 306° West 151 174 8,500  Level Jacksonville Center
03:07PM 32.6286 -81.3164 311° West 139 160 9,000 420 Climbing Jacksonville Center
03:08PM 32.6478 -81.3481 306° West 139 160 9,400 300 Climbing Jacksonville Center
03:09PM 32.6692 -81.3847 305° West 139 160 9,700 300 Climbing Jacksonville Center
03:10PM 32.6903 -81.4264 301° West 139 160 10,100 240 Climbing Jacksonville Center
03:11PM 32.7014 -81.4781 284° West 139 160 10,200  Climbing Jacksonville Center
03:12PM 32.7125 -81.5272 285° West 151 174 10,200  Level Jacksonville Center
03:13PM 32.7378 -81.5689 306° West 151 174 10,200  Level Jacksonville Center
03:14PM 32.7656 -81.6128 307° West 156 180 10,200  Level Jacksonville Center
03:15PM 32.7889 -81.6569 302° West 166 191 10,200 -60 Level Jacksonville Center
03:17PM 32.8213 -81.7026 310° West  Level FlightAware Approximate
03:24PM 32.9733 -81.9879 302° West  Level FlightAware Approximate
03:25PM 33.0139 -81.9918 355° North  Level FlightAware Approximate
03:26PM 33.0546 -81.9957 355° North  Level FlightAware Approximate
03:27PM 33.0750 -82.0379 299° West  Level Estimated
03:28PM 33.0959 -82.0797 301° West  Level FlightAware Approximate
03:29PM 33.1168 -82.1216 301° West  Level FlightAware Approximate
03:30PM 33.1377 -82.1634 301° West  Level FlightAware Approximate
03:31PM 33.1586 -82.2053 301° West  Level FlightAware Approximate
03:32PM 33.1795 -82.2472 301° West  Level FlightAware Approximate
03:33PM 33.2003 -82.2891 301° West  Level FlightAware Approximate
03:34PM 33.2212 -82.3310 301° West  Level FlightAware Approximate
03:35PM 33.2420 -82.3729 301° West  Level FlightAware Approximate
03:36PM 33.2628 -82.4149 301° West  Level FlightAware Approximate
03:37PM 33.2836 -82.4569 301° West  Level FlightAware Approximate
03:38PM 33.3044 -82.4989 301° West  Level FlightAware Approximate
03:39PM 33.3252 -82.5410 301° West  Level FlightAware Approximate
03:40PM 33.3459 -82.5830 301° West  Level FlightAware Approximate
03:41PM 33.3667 -82.6251 301° West  Level FlightAware Approximate
03:42PM 33.3874 -82.6672 301° West  Level FlightAware Approximate
03:43PM 33.4081 -82.7093 301° West  Level FlightAware Approximate
03:44PM 33.4288 -82.7515 300° West  Level FlightAware Approximate
03:45PM 33.4495 -82.7936 300° West  Level FlightAware Approximate
03:46PM 33.4702 -82.8358 300° West  Level FlightAware Approximate
03:46PM 33.5167 -83.0333 302° West 157 181 10,100  Level Atlanta TRACON
03:47PM 33.4908 -82.8780 300° West  Level FlightAware Approximate
03:47PM 33.5333 -83.0833 292° West 153 176 10,100  Level Atlanta TRACON
03:48PM 33.5115 -82.9202 300° West  Level FlightAware Approximate
03:48PM 33.5500 -83.1167 301° West 154 177 10,100  Level Atlanta TRACON
03:49PM 33.5321 -82.9624 300° West  Level FlightAware Approximate
03:49PM 33.5833 -83.1667 309° West 154 177 10,100  Level Atlanta TRACON
03:50PM 33.5527 -83.0047 300° West  Level FlightAware Approximate
03:50PM 33.6000 -83.2000 301° West 155 178 10,100  Level Atlanta TRACON
03:51PM 33.5721 -83.0478 301° West  Level Estimated
03:51PM 33.6167 -83.2500 292° West 170 196 9,600  Level Atlanta TRACON
03:52PM 33.5936 -83.0894 302° West  Level FlightAware Approximate
03:52PM 33.6500 -83.3000 309° West 173 199 9,000  Level Atlanta TRACON
03:53PM 33.6667 -83.3500 292° West 172 198 8,400 -600 Descending Atlanta TRACON
03:54PM 33.7000 -83.4000 309° West 169 194 7,900 -600 Descending Atlanta TRACON
03:55PM 33.7167 -83.4500 292° West 168 193 7,300 -600 Descending Atlanta TRACON
03:56PM 33.7500 -83.5000 309° West 167 192 6,800 -480 Descending Atlanta TRACON
03:57PM 33.7667 -83.5500 292° West 162 186 6,400 -360 Descending Atlanta TRACON
03:58PM 33.8000 -83.5833 320° Northwest 163 188 6,100 -300 Descending Atlanta TRACON
03:59PM 33.8167 -83.6333 292° West 162 186 5,800 -360 Descending Atlanta TRACON
04:00PM 33.8333 -83.6833 292° West 159 183 5,400 -360 Descending Atlanta TRACON
04:01PM 33.8667 -83.7333 309° West 166 191 5,200 -360 Descending Atlanta TRACON
04:02PM 33.8833 -83.7833 292° West 168 193 4,800 -540 Descending Atlanta TRACON
04:03PM 33.9000 -83.8167 301° West 170 196 4,200 -600 Descending Atlanta TRACON
04:04PM 33.9333 -83.8667 309° West 167 192 3,700 -540 Descending Atlanta TRACON
04:05PM 33.9167 -83.9333 253° West 161 185 3,100 -480 Descending Atlanta TRACON
04:06PM 33.9333 -83.9500 320° Northwest 156 180 2,800 -360 Descending Atlanta TRACON
04:07PM 33.9667 -83.9167 40° Northeast 132 152 2,400 -480 Descending Atlanta TRACON
04:08PM 33.9833 -83.9167 360° North 115 132 1,900 -540 Descending Atlanta TRACON